createdAt,value
2022-12-18T00:00:31.607Z,23.60
2022-12-18T00:01:31.650Z,24.60
2022-12-18T00:02:31.638Z,24.70
2022-12-18T00:03:31.726Z,25.20
2022-12-18T00:04:31.627Z,25.70
2022-12-18T00:05:31.548Z,25.10
2022-12-18T00:06:31.537Z,25.20
2022-12-18T00:07:31.544Z,25.20
2022-12-18T00:08:31.558Z,26.00
2022-12-18T00:09:39.722Z,26.20
2022-12-18T00:10:31.513Z,24.90
2022-12-18T00:11:31.496Z,26.50
2022-12-18T00:12:31.494Z,25.50
2022-12-18T00:13:31.480Z,25.70
2022-12-18T00:14:31.488Z,27.70
2022-12-18T00:15:31.471Z,26.70
2022-12-18T00:16:31.524Z,27.20
2022-12-18T00:17:31.460Z,27.10
2022-12-18T00:18:31.440Z,27.50
2022-12-18T00:19:31.431Z,28.50
2022-12-18T00:20:31.411Z,28.00
2022-12-18T00:21:31.444Z,27.80
2022-12-18T00:22:31.413Z,27.80
2022-12-18T00:23:31.394Z,27.50
2022-12-18T00:24:31.379Z,28.70
2022-12-18T00:25:31.373Z,26.80
2022-12-18T00:26:31.376Z,26.80
2022-12-18T00:27:31.370Z,27.80
2022-12-18T00:28:31.346Z,27.00
2022-12-18T00:29:31.331Z,25.80
2022-12-18T00:30:32.323Z,25.30
2022-12-18T00:31:31.374Z,26.30
2022-12-18T00:32:31.331Z,26.10
2022-12-18T00:33:31.323Z,25.40
2022-12-18T00:34:31.333Z,25.90
2022-12-18T00:35:31.304Z,26.60
2022-12-18T00:36:31.281Z,26.70
2022-12-18T00:37:31.268Z,26.50
2022-12-18T00:38:31.283Z,26.90
2022-12-18T00:39:31.255Z,27.80
2022-12-18T00:40:31.239Z,25.80
2022-12-18T00:41:31.254Z,26.80
2022-12-18T00:42:31.226Z,25.10
2022-12-18T00:43:31.215Z,25.20
2022-12-18T00:44:31.204Z,23.70
2022-12-18T00:45:31.310Z,23.90
2022-12-18T00:46:31.197Z,24.10
2022-12-18T00:47:31.166Z,24.00
2022-12-18T00:48:31.182Z,22.70
2022-12-18T00:49:31.151Z,23.70
2022-12-18T00:50:31.140Z,23.40
2022-12-18T00:51:31.153Z,25.00
2022-12-18T00:52:31.139Z,25.60
2022-12-18T00:53:31.130Z,24.60
2022-12-18T00:54:31.178Z,24.00
2022-12-18T00:55:31.106Z,25.20
2022-12-18T00:56:31.085Z,23.60
2022-12-18T00:57:31.090Z,24.20
2022-12-18T00:58:31.075Z,24.80
2022-12-18T00:59:31.101Z,22.70
2022-12-18T01:00:31.070Z,23.90
2022-12-18T01:01:31.159Z,23.80
2022-12-18T01:02:31.205Z,22.80
2022-12-18T01:03:32.056Z,22.40
2022-12-18T01:04:31.047Z,22.00
2022-12-18T01:05:31.003Z,22.30
2022-12-18T01:06:31.005Z,23.00
2022-12-18T01:07:30.997Z,22.50
2022-12-18T01:08:31.001Z,22.20
2022-12-18T01:09:30.967Z,23.00
2022-12-18T01:10:30.977Z,22.90
2022-12-18T01:11:30.980Z,22.80
2022-12-18T01:12:30.947Z,21.80
2022-12-18T01:13:30.949Z,22.20
2022-12-18T01:14:30.942Z,22.30
2022-12-18T01:15:30.911Z,23.40
2022-12-18T01:16:31.012Z,24.10
2022-12-18T01:17:30.926Z,23.60
2022-12-18T01:18:30.885Z,24.80
2022-12-18T01:19:30.894Z,24.90
2022-12-18T01:20:30.889Z,25.00
2022-12-18T01:21:30.851Z,24.00
2022-12-18T01:22:30.863Z,24.60
2022-12-18T01:23:30.844Z,25.20
2022-12-18T01:24:30.846Z,23.70
2022-12-18T01:25:30.857Z,22.40
2022-12-18T01:26:30.821Z,22.40
2022-12-18T01:27:30.819Z,21.90
2022-12-18T01:28:30.792Z,22.90
2022-12-18T01:29:30.792Z,24.70
2022-12-18T01:30:30.804Z,24.40
2022-12-18T01:31:30.871Z,24.20
2022-12-18T01:32:30.769Z,24.30
2022-12-18T01:33:30.764Z,23.20
2022-12-18T01:34:30.759Z,24.80
2022-12-18T01:35:30.757Z,24.00
2022-12-18T01:36:30.747Z,23.00
2022-12-18T01:37:30.718Z,24.20
2022-12-18T01:38:30.700Z,24.60
2022-12-18T01:39:30.718Z,24.60
2022-12-18T01:40:30.686Z,24.00
2022-12-18T01:41:30.680Z,25.60
2022-12-18T01:42:30.680Z,26.40
2022-12-18T01:43:30.665Z,25.30
2022-12-18T01:44:30.681Z,25.50
2022-12-18T01:45:30.678Z,25.70
2022-12-18T01:46:30.637Z,25.40
2022-12-18T01:47:30.627Z,25.60
2022-12-18T01:48:30.623Z,26.50
2022-12-18T01:49:30.629Z,26.20
2022-12-18T01:50:30.616Z,25.00
2022-12-18T01:51:30.619Z,25.00
2022-12-18T01:52:30.591Z,24.80
2022-12-18T01:53:30.581Z,25.60
2022-12-18T01:54:30.578Z,25.60
2022-12-18T01:55:30.583Z,25.20
2022-12-18T01:56:30.556Z,24.90
2022-12-18T01:57:30.549Z,25.00
2022-12-18T01:58:30.534Z,25.20
2022-12-18T01:59:30.549Z,24.50
2022-12-18T02:00:30.520Z,25.00
2022-12-18T02:01:30.599Z,24.10
2022-12-18T02:02:30.659Z,25.50
2022-12-18T02:03:30.499Z,25.00
2022-12-18T02:04:30.476Z,24.60
2022-12-18T02:05:30.467Z,24.30
2022-12-18T02:06:30.501Z,24.20
2022-12-18T02:07:30.449Z,25.90
2022-12-18T02:08:30.450Z,25.40
2022-12-18T02:09:30.444Z,23.10
2022-12-18T02:10:30.447Z,24.20
2022-12-18T02:11:30.407Z,25.40
2022-12-18T02:12:30.406Z,24.50
2022-12-18T02:13:30.471Z,24.70
2022-12-18T02:14:30.416Z,24.00
2022-12-18T02:15:30.401Z,24.30
2022-12-18T02:16:30.488Z,23.40
2022-12-18T02:17:30.359Z,24.00
2022-12-18T02:18:30.355Z,23.30
2022-12-18T02:19:30.364Z,22.80
2022-12-18T02:20:30.377Z,24.70
2022-12-18T02:21:30.335Z,22.70
2022-12-18T02:22:30.347Z,23.80
2022-12-18T02:23:30.318Z,23.30
2022-12-18T02:24:30.284Z,23.10
2022-12-18T02:25:31.289Z,20.80
2022-12-18T02:26:30.279Z,20.60
2022-12-18T02:27:30.300Z,20.60
2022-12-18T02:28:30.272Z,21.50
2022-12-18T02:29:30.332Z,21.10
2022-12-18T02:30:30.316Z,21.20
2022-12-18T02:31:30.240Z,21.40
2022-12-18T02:32:30.258Z,21.30
2022-12-18T02:33:30.249Z,21.40
2022-12-18T02:34:30.230Z,22.20
2022-12-18T02:35:30.218Z,22.60
2022-12-18T02:36:30.220Z,22.60
2022-12-18T02:37:30.174Z,24.30
2022-12-18T02:38:30.167Z,23.30
2022-12-18T02:39:30.160Z,22.00
2022-12-18T02:40:30.163Z,23.00
2022-12-18T02:41:30.137Z,21.80
2022-12-18T02:42:30.154Z,21.60
2022-12-18T02:43:30.113Z,21.40
2022-12-18T02:44:30.109Z,22.70
2022-12-18T02:45:30.276Z,22.70
2022-12-18T02:46:30.103Z,23.00
2022-12-18T02:47:30.108Z,21.50
2022-12-18T02:48:30.101Z,23.30
2022-12-18T02:49:30.096Z,21.70
2022-12-18T02:50:30.075Z,22.90
2022-12-18T02:51:30.059Z,23.70
2022-12-18T02:52:30.039Z,22.30
2022-12-18T02:53:30.047Z,22.60
2022-12-18T02:54:30.032Z,22.10
2022-12-18T02:55:30.024Z,22.30
2022-12-18T02:56:30.036Z,22.80
2022-12-18T02:57:30.019Z,21.30
2022-12-18T02:58:30.022Z,21.00
2022-12-18T02:59:29.981Z,21.40
2022-12-18T03:00:29.996Z,22.30
2022-12-18T03:01:30.162Z,22.30
2022-12-18T03:02:30.091Z,20.90
2022-12-18T03:03:29.994Z,21.30
2022-12-18T03:04:29.951Z,20.20
2022-12-18T03:05:29.936Z,20.40
2022-12-18T03:06:29.926Z,21.00
2022-12-18T03:07:29.904Z,20.20
2022-12-18T03:08:29.918Z,19.80
2022-12-18T03:09:29.898Z,19.20
2022-12-18T03:10:29.910Z,20.20
2022-12-18T03:11:29.885Z,21.20
2022-12-18T03:12:29.872Z,19.70
2022-12-18T03:13:29.863Z,19.80
2022-12-18T03:14:29.857Z,20.30
2022-12-18T03:16:48.516Z,20.20
2022-12-18T03:17:48.326Z,20.30
2022-12-18T03:18:48.318Z,20.40
2022-12-18T03:19:48.311Z,22.10
2022-12-18T03:20:48.296Z,21.60
2022-12-18T03:21:48.311Z,20.90
2022-12-18T03:22:48.282Z,22.00
2022-12-18T03:23:48.276Z,21.50
2022-12-18T03:24:48.274Z,21.60
2022-12-18T03:25:49.387Z,21.80
2022-12-18T03:26:49.421Z,21.60
2022-12-18T03:27:49.373Z,20.70
2022-12-18T03:28:49.383Z,21.20
2022-12-18T03:29:49.367Z,21.70
2022-12-18T03:30:49.344Z,20.80
2022-12-18T03:31:49.341Z,20.90
2022-12-18T03:32:49.401Z,19.90
2022-12-18T03:33:49.422Z,21.20
2022-12-18T03:34:49.317Z,20.50
2022-12-18T03:35:49.299Z,21.80
2022-12-18T03:36:49.282Z,20.20
2022-12-18T03:37:49.278Z,21.50
2022-12-18T03:38:49.313Z,21.70
2022-12-18T03:39:49.260Z,21.40
2022-12-18T03:40:49.272Z,23.10
2022-12-18T03:41:49.251Z,21.20
2022-12-18T03:42:49.236Z,20.50
2022-12-18T03:43:49.234Z,21.20
2022-12-18T03:44:49.263Z,20.90
2022-12-18T03:45:49.294Z,21.70
2022-12-18T03:46:49.218Z,21.20
2022-12-18T03:47:49.207Z,20.90
2022-12-18T03:48:50.253Z,20.90
2022-12-18T03:49:49.183Z,21.50
2022-12-18T03:50:49.174Z,20.30
2022-12-18T03:51:49.180Z,20.80
2022-12-18T03:52:49.148Z,20.60
2022-12-18T03:53:49.143Z,20.30
2022-12-18T03:54:49.167Z,20.50
2022-12-18T03:55:49.113Z,20.10
2022-12-18T03:56:49.133Z,21.60
2022-12-18T03:57:49.117Z,21.90
2022-12-18T03:58:49.105Z,20.30
2022-12-18T03:59:49.110Z,20.60
2022-12-18T04:00:49.100Z,20.80
2022-12-18T04:01:50.146Z,20.30
2022-12-18T04:02:49.234Z,20.80
2022-12-18T04:03:49.158Z,20.40
2022-12-18T04:04:49.125Z,20.90
2022-12-18T04:05:49.075Z,20.90
2022-12-18T04:06:49.032Z,20.70
2022-12-18T04:07:49.023Z,20.70
2022-12-18T04:08:49.033Z,21.10
2022-12-18T04:09:49.006Z,20.70
2022-12-18T04:10:49.004Z,21.50
2022-12-18T04:11:49.015Z,19.30
2022-12-18T04:12:48.972Z,19.80
2022-12-18T04:13:48.986Z,20.10
2022-12-18T04:14:48.972Z,21.30
2022-12-18T04:15:48.970Z,20.70
2022-12-18T04:16:48.941Z,19.40
2022-12-18T04:17:48.938Z,19.60
2022-12-18T04:18:48.938Z,20.10
2022-12-18T04:19:48.918Z,20.40
2022-12-18T04:20:48.975Z,20.20
2022-12-18T04:21:48.929Z,20.30
2022-12-18T04:22:48.886Z,20.50
2022-12-18T04:23:48.882Z,19.30
2022-12-18T04:24:48.879Z,20.90
2022-12-18T04:25:48.865Z,19.30
2022-12-18T04:26:49.881Z,18.70
2022-12-18T04:27:48.862Z,21.10
2022-12-18T04:28:48.832Z,22.00
2022-12-18T04:29:48.825Z,21.60
2022-12-18T04:30:48.881Z,22.00
2022-12-18T04:31:48.815Z,22.00
2022-12-18T04:32:52.174Z,22.70
2022-12-18T04:33:49.792Z,21.40
2022-12-18T04:34:48.786Z,22.00
2022-12-18T04:35:48.790Z,23.00
2022-12-18T04:36:54.621Z,22.10
2022-12-18T04:37:49.846Z,22.80
2022-12-18T04:38:48.754Z,22.90
2022-12-18T04:39:48.734Z,23.30
2022-12-18T04:40:48.756Z,23.40
2022-12-18T04:41:48.721Z,22.50
2022-12-18T04:42:48.762Z,23.40
2022-12-18T04:43:48.709Z,22.20
2022-12-18T04:44:48.695Z,22.60
2022-12-18T04:45:48.705Z,22.40
2022-12-18T04:46:48.763Z,22.20
2022-12-18T04:47:48.668Z,21.00
2022-12-18T04:48:48.668Z,21.70
2022-12-18T04:49:48.658Z,22.10
2022-12-18T04:50:48.664Z,21.10
2022-12-18T04:51:48.626Z,22.10
2022-12-18T04:52:48.621Z,22.00
2022-12-18T04:53:48.693Z,22.80
2022-12-18T04:54:48.600Z,20.40
2022-12-18T04:55:48.602Z,21.00
2022-12-18T04:56:48.610Z,20.90
2022-12-18T04:57:48.583Z,19.90
2022-12-18T04:58:48.592Z,20.20
2022-12-18T04:59:48.581Z,19.90
2022-12-18T05:00:49.546Z,20.60
2022-12-18T05:01:48.656Z,19.80
2022-12-18T05:02:48.631Z,20.00
2022-12-18T05:03:48.585Z,19.90
2022-12-18T05:04:49.555Z,21.30
2022-12-18T05:05:48.524Z,20.70
2022-12-18T05:06:49.505Z,21.00
2022-12-18T05:07:48.497Z,20.40
2022-12-18T05:08:48.485Z,20.30
2022-12-18T05:09:48.580Z,20.70
2022-12-18T05:10:48.501Z,21.20
2022-12-18T05:11:48.481Z,20.20
2022-12-18T05:12:48.470Z,20.70
2022-12-18T05:13:48.456Z,21.10
2022-12-18T05:14:48.451Z,19.50
2022-12-18T05:15:48.463Z,20.50
2022-12-18T05:16:48.423Z,21.90
2022-12-18T05:17:48.433Z,20.60
2022-12-18T05:18:48.419Z,21.30
2022-12-18T05:19:48.438Z,21.10
2022-12-18T05:20:48.389Z,21.20
2022-12-18T05:21:48.378Z,20.80
2022-12-18T05:22:48.374Z,20.80
2022-12-18T05:23:48.369Z,20.80
2022-12-18T05:24:48.364Z,20.10
2022-12-18T05:25:48.416Z,19.80
2022-12-18T05:26:48.319Z,20.60
2022-12-18T05:27:48.317Z,20.10
2022-12-18T05:28:48.301Z,20.70
2022-12-18T05:29:48.312Z,20.10
2022-12-18T05:30:48.288Z,20.50
2022-12-18T05:31:48.336Z,19.40
2022-12-18T05:32:48.283Z,20.30
2022-12-18T05:33:48.273Z,20.00
2022-12-18T05:34:48.278Z,19.60
2022-12-18T05:35:48.244Z,19.60
2022-12-18T05:36:48.237Z,20.20
2022-12-18T05:37:48.246Z,20.90
2022-12-18T05:38:48.222Z,20.20
2022-12-18T05:39:48.220Z,21.10
2022-12-18T05:40:48.235Z,21.00
2022-12-18T05:41:48.296Z,19.60
2022-12-18T05:42:48.194Z,20.20
2022-12-18T05:43:48.206Z,19.80
2022-12-18T05:44:48.159Z,20.20
2022-12-18T05:45:48.159Z,19.70
2022-12-18T05:46:48.183Z,18.90
2022-12-18T05:47:48.166Z,18.90
2022-12-18T05:48:48.130Z,19.60
2022-12-18T05:49:48.124Z,20.30
2022-12-18T05:50:48.117Z,19.10
2022-12-18T05:51:48.105Z,19.30
2022-12-18T05:52:48.125Z,19.00
2022-12-18T05:53:48.085Z,19.00
2022-12-18T05:54:48.081Z,19.20
2022-12-18T05:55:48.091Z,18.70
2022-12-18T05:56:49.060Z,19.70
2022-12-18T05:57:49.154Z,19.10
2022-12-18T05:58:48.051Z,18.90
2022-12-18T05:59:48.035Z,19.40
2022-12-18T06:00:48.059Z,18.40
2022-12-18T06:01:48.127Z,18.70
2022-12-18T06:02:48.090Z,18.90
2022-12-18T06:03:48.176Z,18.50
2022-12-18T06:04:47.994Z,19.70
2022-12-18T06:05:47.987Z,20.60
2022-12-18T06:06:47.983Z,21.20
2022-12-18T06:07:47.968Z,20.30
2022-12-18T06:08:47.995Z,20.50
2022-12-18T06:09:47.958Z,19.90
2022-12-18T06:10:47.938Z,20.50
2022-12-18T06:11:47.926Z,20.30
2022-12-18T06:12:47.926Z,20.10
2022-12-18T06:13:48.004Z,18.70
2022-12-18T06:14:47.904Z,20.00
2022-12-18T06:15:47.940Z,19.80
2022-12-18T06:16:47.884Z,18.80
2022-12-18T06:17:47.870Z,18.50
2022-12-18T06:18:47.881Z,19.70
2022-12-18T06:19:47.881Z,19.60
2022-12-18T06:20:47.852Z,20.30
2022-12-18T06:21:47.844Z,20.70
2022-12-18T06:22:47.837Z,20.40
2022-12-18T06:23:47.829Z,20.10
2022-12-18T06:24:47.835Z,19.10
2022-12-18T06:25:47.802Z,18.40
2022-12-18T06:26:47.794Z,18.50
2022-12-18T06:27:47.791Z,18.90
2022-12-18T06:28:47.789Z,19.20
2022-12-18T06:29:47.885Z,18.20
2022-12-18T06:30:47.770Z,19.00
2022-12-18T06:31:47.810Z,18.90
2022-12-18T06:32:50.498Z,19.50
2022-12-18T06:33:48.764Z,18.20
2022-12-18T06:34:47.725Z,17.00
2022-12-18T06:35:47.729Z,18.90
2022-12-18T06:36:47.720Z,18.40
2022-12-18T06:37:47.705Z,19.10
2022-12-18T06:38:47.720Z,19.30
2022-12-18T06:39:47.698Z,18.30
2022-12-18T06:40:47.675Z,19.60
2022-12-18T06:41:47.683Z,18.70
2022-12-18T06:42:47.675Z,19.40
2022-12-18T06:43:47.659Z,18.60
2022-12-18T06:44:47.666Z,19.10
2022-12-18T06:45:47.777Z,19.60
2022-12-18T06:46:47.625Z,18.20
2022-12-18T06:47:47.628Z,18.70
2022-12-18T06:48:47.615Z,18.60
2022-12-18T06:49:47.607Z,18.90
2022-12-18T06:50:47.618Z,18.00
2022-12-18T06:51:47.599Z,18.50
2022-12-18T06:52:47.588Z,17.90
2022-12-18T06:53:47.583Z,18.70
2022-12-18T06:54:47.568Z,19.60
2022-12-18T06:55:47.559Z,19.40
2022-12-18T06:56:47.563Z,18.80
2022-12-18T06:57:47.551Z,18.70
2022-12-18T06:58:47.528Z,19.00
2022-12-18T06:59:47.512Z,18.30
2022-12-18T07:00:48.552Z,19.40
2022-12-18T07:01:47.844Z,19.90
2022-12-18T07:02:47.614Z,19.50
2022-12-18T07:03:47.504Z,20.10
2022-12-18T07:04:47.470Z,19.80
2022-12-18T07:05:47.459Z,18.90
2022-12-18T07:06:47.440Z,19.00
2022-12-18T07:07:47.442Z,19.60
2022-12-18T07:08:47.447Z,19.00
2022-12-18T07:09:47.444Z,19.40
2022-12-18T07:10:50.648Z,18.00
2022-12-18T07:11:48.419Z,18.80
2022-12-18T07:12:47.402Z,20.10
2022-12-18T07:13:47.396Z,19.80
2022-12-18T07:14:47.406Z,17.80
2022-12-18T07:15:47.405Z,19.20
2022-12-18T07:16:47.392Z,18.60
2022-12-18T07:17:47.437Z,19.40
2022-12-18T07:18:47.346Z,18.40
2022-12-18T07:19:47.356Z,18.30
2022-12-18T07:20:47.790Z,18.00
2022-12-18T07:21:47.312Z,17.30
2022-12-18T07:22:50.796Z,18.20
2022-12-18T07:23:48.307Z,17.80
2022-12-18T07:24:47.291Z,18.30
2022-12-18T07:25:47.308Z,18.80
2022-12-18T07:26:47.274Z,18.40
2022-12-18T07:27:47.275Z,17.70
2022-12-18T07:28:47.288Z,17.90
2022-12-18T07:29:47.266Z,19.30
2022-12-18T07:30:47.254Z,18.10
2022-12-18T07:31:47.279Z,18.60
2022-12-18T07:32:47.242Z,17.70
2022-12-18T07:33:47.313Z,19.10
2022-12-18T07:34:47.214Z,20.00
2022-12-18T07:35:47.213Z,20.30
2022-12-18T07:36:47.196Z,19.30
2022-12-18T07:37:47.197Z,20.40
2022-12-18T07:38:47.191Z,19.10
2022-12-18T07:39:47.188Z,19.30
2022-12-18T07:40:47.158Z,20.30
2022-12-18T07:41:47.670Z,21.30
2022-12-18T07:42:47.154Z,22.20
2022-12-18T07:43:47.136Z,22.30
2022-12-18T07:44:47.122Z,21.90
2022-12-18T07:45:47.184Z,20.20
2022-12-18T07:46:47.114Z,20.10
2022-12-18T07:47:47.112Z,19.60
2022-12-18T07:48:50.033Z,20.20
2022-12-18T07:49:47.155Z,19.50
2022-12-18T07:50:47.090Z,19.90
2022-12-18T07:51:47.082Z,20.10
2022-12-18T07:52:47.051Z,18.70
2022-12-18T07:53:49.688Z,18.80
2022-12-18T07:54:47.049Z,19.00
2022-12-18T07:56:24.873Z,18.40
2022-12-18T07:56:49.062Z,18.10
2022-12-18T07:57:51.964Z,18.30
2022-12-18T07:58:49.003Z,18.70
2022-12-18T07:59:46.992Z,18.00
2022-12-18T08:00:46.997Z,18.70
2022-12-18T08:01:47.084Z,19.00
2022-12-18T08:02:47.042Z,18.70
2022-12-18T08:03:46.960Z,19.10
2022-12-18T08:04:46.944Z,17.80
2022-12-18T08:05:47.006Z,18.90
2022-12-18T08:06:48.181Z,18.40
2022-12-18T08:07:47.935Z,18.70
2022-12-18T08:08:46.915Z,18.00
2022-12-18T08:09:46.895Z,18.90
2022-12-18T08:10:46.890Z,18.80
2022-12-18T08:11:46.905Z,17.80
2022-12-18T08:12:46.885Z,17.40
2022-12-18T08:13:46.870Z,17.90
2022-12-18T08:14:46.865Z,18.40
2022-12-18T08:15:47.350Z,18.30
2022-12-18T08:16:46.880Z,17.10
2022-12-18T08:17:46.835Z,18.30
2022-12-18T08:18:46.807Z,18.60
2022-12-18T08:19:46.810Z,18.90
2022-12-18T08:20:46.799Z,18.20
2022-12-18T08:21:46.867Z,19.10
2022-12-18T08:22:46.791Z,18.20
2022-12-18T08:23:47.186Z,19.20
2022-12-18T08:24:46.763Z,18.90
2022-12-18T08:25:46.767Z,19.10
2022-12-18T08:27:06.792Z,18.80
2022-12-18T08:27:48.734Z,18.90
2022-12-18T08:28:46.726Z,20.10
2022-12-18T08:29:46.711Z,19.90
2022-12-18T08:30:46.798Z,19.50
2022-12-18T08:31:46.800Z,19.30
2022-12-18T08:32:46.672Z,20.90
2022-12-18T08:33:46.669Z,18.20
2022-12-18T08:34:46.680Z,19.80
2022-12-18T08:35:46.671Z,19.10
2022-12-18T08:36:46.695Z,19.50
2022-12-18T08:37:46.715Z,18.60
2022-12-18T08:38:46.617Z,18.70
2022-12-18T08:39:46.640Z,19.90
2022-12-18T08:40:46.615Z,20.50
2022-12-18T08:41:46.600Z,20.20
2022-12-18T08:42:46.585Z,19.70
2022-12-18T08:43:46.572Z,22.10
2022-12-18T08:44:46.579Z,22.20
2022-12-18T08:45:46.693Z,21.50
2022-12-18T08:46:47.550Z,21.50
2022-12-18T08:47:46.579Z,20.20
2022-12-18T08:48:46.548Z,27.60
2022-12-18T08:49:46.524Z,65.90
2022-12-18T08:50:46.534Z,78.30
2022-12-18T08:51:46.493Z,28.30
2022-12-18T08:52:46.505Z,21.10
2022-12-18T08:53:46.567Z,21.30
2022-12-18T08:54:46.473Z,35.00
2022-12-18T08:55:50.225Z,29.40
2022-12-18T08:56:47.473Z,22.90
2022-12-18T08:57:46.444Z,23.70
2022-12-18T08:58:46.434Z,24.10
2022-12-18T08:59:46.423Z,22.10
2022-12-18T09:00:46.402Z,20.70
2022-12-18T09:01:46.570Z,21.00
2022-12-18T09:02:46.588Z,19.60
2022-12-18T09:03:46.382Z,20.00
2022-12-18T09:04:47.389Z,21.20
2022-12-18T09:05:47.388Z,20.40
2022-12-18T09:06:46.350Z,20.60
2022-12-18T09:07:46.370Z,21.60
2022-12-18T09:08:46.331Z,21.10
2022-12-18T09:09:46.402Z,21.30
2022-12-18T09:10:46.322Z,21.90
2022-12-18T09:11:46.343Z,25.60
2022-12-18T09:12:46.290Z,23.00
2022-12-18T09:13:46.308Z,22.00
2022-12-18T09:14:46.275Z,22.00
2022-12-18T09:16:18.211Z,22.00
2022-12-18T09:16:46.359Z,22.30
2022-12-18T09:17:46.272Z,20.60
2022-12-18T09:18:46.276Z,20.30
2022-12-18T09:19:46.246Z,21.70
2022-12-18T09:20:46.230Z,21.40
2022-12-18T09:21:48.251Z,22.60
2022-12-18T09:22:47.252Z,21.70
2022-12-18T09:23:46.224Z,21.50
2022-12-18T09:24:46.222Z,22.00
2022-12-18T09:25:46.259Z,23.20
2022-12-18T09:26:47.249Z,20.70
2022-12-18T09:27:46.165Z,22.00
2022-12-18T09:28:46.177Z,22.90
2022-12-18T09:29:46.178Z,23.10
2022-12-18T09:30:46.236Z,20.80
2022-12-18T09:31:46.131Z,21.50
2022-12-18T09:32:46.127Z,23.10
2022-12-18T09:33:46.140Z,21.60
2022-12-18T09:34:46.189Z,22.30
2022-12-18T09:35:46.113Z,22.20
2022-12-18T09:36:46.102Z,21.70
2022-12-18T09:37:46.108Z,22.40
2022-12-18T09:38:46.076Z,22.20
2022-12-18T09:39:46.064Z,21.70
2022-12-18T09:40:46.061Z,21.60
2022-12-18T09:41:46.163Z,23.10
2022-12-18T09:42:46.109Z,22.40
2022-12-18T09:43:46.062Z,22.10
2022-12-18T09:44:46.122Z,23.20
2022-12-18T09:45:46.087Z,22.00
2022-12-18T09:46:46.124Z,21.60
2022-12-18T09:47:46.019Z,22.60
2022-12-18T09:48:46.000Z,22.50
2022-12-18T09:49:45.976Z,23.00
2022-12-18T09:50:45.964Z,22.90
2022-12-18T09:51:46.001Z,22.30
2022-12-18T09:52:45.941Z,22.00
2022-12-18T09:53:45.946Z,22.80
2022-12-18T09:54:45.998Z,20.20
2022-12-18T09:55:45.925Z,21.20
2022-12-18T09:56:45.949Z,21.20
2022-12-18T09:57:45.983Z,21.40
2022-12-18T09:58:45.889Z,21.80
2022-12-18T09:59:45.910Z,21.70
2022-12-18T10:00:45.871Z,21.10
2022-12-18T10:01:47.409Z,20.90
2022-12-18T10:02:46.983Z,22.40
2022-12-18T10:03:45.866Z,21.60
2022-12-18T10:04:45.950Z,22.00
2022-12-18T10:05:45.826Z,22.00
2022-12-18T10:06:45.838Z,21.80
2022-12-18T10:07:45.834Z,22.70
2022-12-18T10:08:45.840Z,22.00
2022-12-18T10:09:45.808Z,22.30
2022-12-18T10:10:45.795Z,22.30
2022-12-18T10:11:45.759Z,22.10
2022-12-18T10:12:45.755Z,22.10
2022-12-18T10:13:45.817Z,22.00
2022-12-18T10:14:45.785Z,23.00
2022-12-18T10:15:45.822Z,22.20
2022-12-18T10:16:45.739Z,22.00
2022-12-18T10:17:45.702Z,22.60
2022-12-18T10:18:45.701Z,22.30
2022-12-18T10:19:45.685Z,23.80
2022-12-18T10:20:45.733Z,21.80
2022-12-18T10:21:45.671Z,23.30
2022-12-18T10:22:45.667Z,22.60
2022-12-18T10:23:48.413Z,22.80
2022-12-18T10:24:46.666Z,23.00
2022-12-18T10:25:45.668Z,22.30
2022-12-18T10:26:45.629Z,23.30
2022-12-18T10:27:45.646Z,23.90
2022-12-18T10:28:45.630Z,23.40
2022-12-18T10:29:46.678Z,23.20
2022-12-18T10:30:45.647Z,23.00
2022-12-18T10:31:45.640Z,24.40
2022-12-18T10:32:45.612Z,24.10
2022-12-18T10:33:45.584Z,22.30
2022-12-18T10:34:45.582Z,23.00
2022-12-18T10:35:45.568Z,23.50
2022-12-18T10:36:45.610Z,24.50
2022-12-18T10:37:45.543Z,24.00
2022-12-18T10:38:45.551Z,24.20
2022-12-18T10:39:45.545Z,23.10
2022-12-18T10:40:45.564Z,22.60
2022-12-18T10:41:45.668Z,23.70
2022-12-18T10:42:45.509Z,23.10
2022-12-18T10:43:45.495Z,21.90
2022-12-18T10:44:45.490Z,23.40
2022-12-18T10:45:45.559Z,22.90
2022-12-18T10:46:45.582Z,24.20
2022-12-18T10:47:45.451Z,21.40
2022-12-18T10:48:45.487Z,22.70
2022-12-18T10:49:45.416Z,22.70
2022-12-18T10:51:10.242Z,23.20
2022-12-18T10:51:47.403Z,24.10
2022-12-18T10:52:45.386Z,22.70
2022-12-18T10:53:46.397Z,24.40
2022-12-18T10:54:45.405Z,23.30
2022-12-18T10:55:45.374Z,21.90
2022-12-18T10:56:45.378Z,23.40
2022-12-18T10:57:45.372Z,23.00
2022-12-18T10:58:45.771Z,24.00
2022-12-18T10:59:45.343Z,22.50
2022-12-18T11:00:45.318Z,24.00
2022-12-18T11:01:45.467Z,23.70
2022-12-18T11:02:45.484Z,23.50
2022-12-18T11:03:45.392Z,22.90
2022-12-18T11:04:45.298Z,22.80
2022-12-18T11:05:45.307Z,22.90
2022-12-18T11:06:45.272Z,22.10
2022-12-18T11:07:45.259Z,22.90
2022-12-18T11:08:45.337Z,22.60
2022-12-18T11:09:45.268Z,21.90
2022-12-18T11:10:45.276Z,23.80
2022-12-18T11:11:45.245Z,23.60
2022-12-18T11:12:45.224Z,23.30
2022-12-18T11:13:45.195Z,23.70
2022-12-18T11:14:47.440Z,22.90
2022-12-18T11:15:45.223Z,22.10
2022-12-18T11:17:03.183Z,22.50
2022-12-18T11:17:47.236Z,24.40
2022-12-18T11:18:45.176Z,22.90
2022-12-18T11:19:45.176Z,23.10
2022-12-18T11:20:45.136Z,24.10
2022-12-18T11:21:45.130Z,23.10
2022-12-18T11:22:46.109Z,24.90
2022-12-18T11:23:45.153Z,23.60
2022-12-18T11:24:53.242Z,22.90
2022-12-18T11:25:47.097Z,23.00
2022-12-18T11:26:45.061Z,22.80
2022-12-18T11:27:45.052Z,24.00
2022-12-18T11:28:45.440Z,24.20
2022-12-18T11:29:46.845Z,22.80
2022-12-18T11:30:46.053Z,22.70
2022-12-18T11:31:45.067Z,23.50
2022-12-18T11:32:45.019Z,22.80
2022-12-18T11:34:04.859Z,22.10
2022-12-18T11:34:46.012Z,22.20
2022-12-18T11:35:45.028Z,20.70
2022-12-18T11:36:44.992Z,21.40
2022-12-18T11:37:44.952Z,21.00
2022-12-18T11:38:45.060Z,20.20
2022-12-18T11:39:44.945Z,21.40
2022-12-18T11:40:44.935Z,21.80
2022-12-18T11:41:44.957Z,21.20
2022-12-18T11:42:44.943Z,21.40
2022-12-18T11:43:44.943Z,20.80
2022-12-18T11:44:44.906Z,20.20
2022-12-18T11:45:44.895Z,24.90
2022-12-18T11:46:44.942Z,22.00
2022-12-18T11:47:44.872Z,24.40
2022-12-18T11:48:44.885Z,22.20
2022-12-18T11:49:44.949Z,21.00
2022-12-18T11:50:44.857Z,21.20
2022-12-18T11:51:44.871Z,19.90
2022-12-18T11:52:44.841Z,21.10
2022-12-18T11:53:44.820Z,19.80
2022-12-18T11:54:44.816Z,21.10
2022-12-18T11:55:44.800Z,20.80
2022-12-18T11:56:44.815Z,19.90
2022-12-18T11:57:44.775Z,20.40
2022-12-18T11:58:45.053Z,20.90
2022-12-18T11:59:44.751Z,19.70
2022-12-18T12:00:44.742Z,20.90
2022-12-18T12:01:45.062Z,19.50
2022-12-18T12:02:44.801Z,19.20
2022-12-18T12:03:45.373Z,20.70
2022-12-18T12:04:44.732Z,21.50
2022-12-18T12:05:44.800Z,19.70
2022-12-18T12:06:44.678Z,20.40
2022-12-18T12:07:44.702Z,20.90
2022-12-18T12:08:44.663Z,21.00
2022-12-18T12:09:44.666Z,19.20
2022-12-18T12:10:44.646Z,20.70
2022-12-18T12:11:44.633Z,20.40
2022-12-18T12:12:48.307Z,20.10
2022-12-18T12:13:45.627Z,19.50
2022-12-18T12:14:44.595Z,19.70
2022-12-18T12:15:44.620Z,19.80
2022-12-18T12:16:44.605Z,20.70
2022-12-18T12:17:44.571Z,19.70
2022-12-18T12:18:44.609Z,19.60
2022-12-18T12:19:44.583Z,18.80
2022-12-18T12:20:44.570Z,19.40
2022-12-18T12:21:44.621Z,18.60
2022-12-18T12:22:44.571Z,18.00
2022-12-18T12:23:44.992Z,18.40
2022-12-18T12:24:44.535Z,17.60
2022-12-18T12:25:44.547Z,18.70
2022-12-18T12:26:44.510Z,20.40
2022-12-18T12:27:44.494Z,21.30
2022-12-18T12:28:44.522Z,20.30
2022-12-18T12:29:44.467Z,20.80
2022-12-18T12:30:44.467Z,19.10
2022-12-18T12:31:44.481Z,18.50
2022-12-18T12:32:44.417Z,18.70
2022-12-18T12:33:44.592Z,18.80
2022-12-18T12:34:44.438Z,19.60
2022-12-18T12:35:44.405Z,18.40
2022-12-18T12:36:44.402Z,19.30
2022-12-18T12:37:44.455Z,18.60
2022-12-18T12:38:49.763Z,18.00
2022-12-18T12:39:46.395Z,18.20
2022-12-18T12:40:56.961Z,20.80
2022-12-18T12:41:46.419Z,19.20
2022-12-18T12:42:44.375Z,19.20
2022-12-18T12:43:50.442Z,19.20
2022-12-18T12:44:49.038Z,19.20
2022-12-18T12:45:45.314Z,19.60
2022-12-18T12:46:44.297Z,19.30
2022-12-18T12:47:45.306Z,19.20
2022-12-18T12:48:44.622Z,19.40
2022-12-18T12:49:44.273Z,18.80
2022-12-18T12:50:44.275Z,19.10
2022-12-18T12:51:44.238Z,20.20
2022-12-18T12:52:44.256Z,20.20
2022-12-18T12:53:44.841Z,18.60